Time;durP1;ratioP1;P1;durP2;ratioP2;P2;SDS_P1;SDS_P2;PMS_P1;PMS_P2;Temp;Humidity;BMP_temperature;BMP_pressure;BME280_temperature;BME280_humidity;BME280_pressure;Samples;Min_cycle;Max_cycle;Signal;HPM_P1;HPM_P2
2022/09/10 00:00:59;;;;;;;8.60;3.10;;;;;;;;;;5016105;28;20036;-50
2022/09/10 00:03:25;;;;;;;8.05;3.50;;;;;;;;;;5015801;28;20022;-49
2022/09/10 00:05:51;;;;;;;4.72;3.33;;;;;;;;;;5015784;28;20481;-47
2022/09/10 00:08:18;;;;;;;6.07;2.70;;;;;;;;;;5015860;28;20040;-43
2022/09/10 00:10:47;;;;;;;5.18;3.20;;;;;;;;;;5015941;28;20026;-49
2022/09/10 00:13:15;;;;;;;4.50;2.58;;;;;;;;;;5015915;28;20032;-44
2022/09/10 00:15:44;;;;;;;4.43;2.47;;;;;;;;;;5015494;28;20018;-44
2022/09/10 00:18:12;;;;;;;5.03;2.08;;;;;;;;;;5015811;28;20040;-43
2022/09/10 00:20:46;;;;;;;3.88;2.25;;;;;;;;;;5015496;28;20022;-50
2022/09/10 00:23:13;;;;;;;7.18;2.00;;;;;;;;;;5015411;28;20382;-47
2022/09/10 00:25:39;;;;;;;3.70;2.10;;;;;;;;;;5015670;28;20101;-47
2022/09/10 00:28:04;;;;;;;1.88;1.73;;;;;;;;;;5015145;28;20557;-43
2022/09/10 00:30:30;;;;;;;3.28;1.90;;;;;;;;;;5015168;28;20056;-43
2022/09/10 00:32:56;;;;;;;2.33;1.80;;;;;;;;;;5015323;28;20076;-48
2022/09/10 00:35:21;;;;;;;7.00;1.90;;;;;;;;;;5015467;28;20054;-48
2022/09/10 00:37:47;;;;;;;2.45;1.70;;;;;;;;;;5015059;28;20057;-46
2022/09/10 00:40:15;;;;;;;2.25;1.70;;;;;;;;;;5015125;28;20018;-46
2022/09/10 00:42:43;;;;;;;2.17;1.65;;;;;;;;;;5015399;28;20489;-44
2022/09/10 00:45:23;;;;;;;3.35;1.70;;;;;;;;;;5015278;28;20026;-46
2022/09/10 00:47:50;;;;;;;13.15;1.70;;;;;;;;;;5015279;28;20416;-44
2022/09/10 00:50:33;;;;;;;1.60;1.50;;;;;;;;;;5014122;28;20041;-46
2022/09/10 00:53:05;;;;;;;4.13;1.50;;;;;;;;;;5014057;28;20029;-43
2022/09/10 00:55:34;;;;;;;3.28;1.60;;;;;;;;;;5014913;28;20470;-47
2022/09/10 00:58:02;;;;;;;3.10;1.40;;;;;;;;;;5014697;28;20128;-45
2022/09/10 01:00:30;;;;;;;1.90;1.60;;;;;;;;;;5014823;28;20022;-47
2022/09/10 01:02:55;;;;;;;4.85;1.63;;;;;;;;;;5014677;28;20069;-46
2022/09/10 01:05:22;;;;;;;1.73;1.63;;;;;;;;;;5014938;28;20058;-47
2022/09/10 01:07:47;;;;;;;7.28;1.95;;;;;;;;;;5014529;28;20032;-49
2022/09/10 01:10:48;;;;;;;3.55;1.67;;;;;;;;;;5014838;28;20117;-47
2022/09/10 01:13:32;;;;;;;3.38;1.48;;;;;;;;;;5014797;28;20105;-46
2022/09/10 01:16:00;;;;;;;2.05;1.45;;;;;;;;;;5013200;28;20053;-45
2022/09/10 01:18:27;;;;;;;2.08;1.88;;;;;;;;;;5014379;28;20520;-42
2022/09/10 01:21:01;;;;;;;1.73;1.60;;;;;;;;;;5014361;28;20029;-43
2022/09/10 01:23:40;;;;;;;1.73;1.50;;;;;;;;;;5014386;28;20041;-44
2022/09/10 01:26:30;;;;;;;2.15;1.40;;;;;;;;;;5014191;28;20110;-41
2022/09/10 01:29:04;;;;;;;4.13;1.60;;;;;;;;;;5014460;28;20033;-43
2022/09/10 01:31:34;;;;;;;2.47;1.70;;;;;;;;;;5014071;28;20133;-44
2022/09/10 01:34:12;;;;;;;3.10;1.85;;;;;;;;;;5014160;28;20030;-44
2022/09/10 01:36:46;;;;;;;3.03;1.80;;;;;;;;;;5014085;28;20026;-45
2022/09/10 01:39:14;;;;;;;2.15;1.70;;;;;;;;;;5014065;28;20025;-45
2022/09/10 01:41:40;;;;;;;2.03;1.80;;;;;;;;;;5014022;28;20018;-43
2022/09/10 01:44:38;;;;;;;2.35;1.95;;;;;;;;;;5013948;28;20473;-44
2022/09/10 01:47:14;;;;;;;3.17;2.00;;;;;;;;;;5008401;28;20050;-44
2022/09/10 01:50:05;;;;;;;3.72;1.92;;;;;;;;;;5013800;28;20037;-44
2022/09/10 01:53:09;;;;;;;2.00;1.70;;;;;;;;;;5013803;28;20432;-46
2022/09/10 01:55:51;;;;;;;4.68;2.10;;;;;;;;;;4990583;28;20041;-44
2022/09/10 01:58:37;;;;;;;3.70;2.30;;;;;;;;;;5013957;28;20116;-43
2022/09/10 02:01:28;;;;;;;3.70;1.98;;;;;;;;;;5012531;28;20477;-43
2022/09/10 02:04:04;;;;;;;2.65;2.25;;;;;;;;;;5013627;28;20058;-43
2022/09/10 02:06:33;;;;;;;3.30;2.20;;;;;;;;;;5013558;28;20022;-44
2022/09/10 02:09:00;;;;;;;3.07;2.20;;;;;;;;;;4996196;28;20504;-43
2022/09/10 02:11:26;;;;;;;3.65;2.22;;;;;;;;;;5013694;28;20607;-43
2022/09/10 02:13:52;;;;;;;3.88;2.30;;;;;;;;;;5013409;28;20034;-44
2022/09/10 02:16:31;;;;;;;4.78;2.50;;;;;;;;;;5013437;28;20026;-43
2022/09/10 02:18:58;;;;;;;3.80;2.40;;;;;;;;;;5013623;28;20100;-46
2022/09/10 02:21:24;;;;;;;3.28;2.42;;;;;;;;;;5013292;28;20036;-43
2022/09/10 02:23:55;;;;;;;3.30;2.50;;;;;;;;;;5013171;28;20030;-45
2022/09/10 02:26:21;;;;;;;6.80;3.08;;;;;;;;;;5013210;28;20505;-43
2022/09/10 02:28:50;;;;;;;4.05;2.90;;;;;;;;;;5013091;28;20087;-43
2022/09/10 02:31:17;;;;;;;3.35;3.05;;;;;;;;;;5012829;28;20046;-44
2022/09/10 02:33:43;;;;;;;5.85;3.10;;;;;;;;;;5013152;28;20060;-45
2022/09/10 02:36:08;;;;;;;3.53;3.20;;;;;;;;;;5013435;28;20053;-41
2022/09/10 02:38:34;;;;;;;6.22;3.30;;;;;;;;;;5012985;28;20026;-46
2022/09/10 02:40:59;;;;;;;6.55;3.10;;;;;;;;;;5012973;28;20037;-44
2022/09/10 02:43:28;;;;;;;4.25;2.60;;;;;;;;;;5012937;28;20040;-44
2022/09/10 02:45:57;;;;;;;2.92;2.45;;;;;;;;;;5012952;28;20033;-43
2022/09/10 02:48:25;;;;;;;2.97;2.20;;;;;;;;;;5012801;28;20037;-44
2022/09/10 02:50:51;;;;;;;3.53;2.30;;;;;;;;;;5012862;28;20026;-44
2022/09/10 02:53:17;;;;;;;4.30;2.25;;;;;;;;;;5013144;28;20474;-44
2022/09/10 02:55:46;;;;;;;8.07;2.30;;;;;;;;;;5012764;28;20104;-44
2022/09/10 02:58:14;;;;;;;8.30;2.58;;;;;;;;;;5013124;28;20030;-45
2022/09/10 03:00:40;;;;;;;5.85;2.40;;;;;;;;;;5012808;28;20026;-46
2022/09/10 03:03:06;;;;;;;3.30;2.17;;;;;;;;;;5012675;28;20061;-47
2022/09/10 03:05:32;;;;;;;4.35;2.40;;;;;;;;;;5012732;28;20053;-46
2022/09/10 03:07:59;;;;;;;7.38;2.75;;;;;;;;;;5012530;28;20108;-49
2022/09/10 03:10:24;;;;;;;3.67;2.38;;;;;;;;;;5012661;28;20037;-48
2022/09/10 03:12:50;;;;;;;3.78;3.20;;;;;;;;;;5012489;28;20137;-46
2022/09/10 03:15:19;;;;;;;6.10;2.72;;;;;;;;;;5012553;28;20477;-46
2022/09/10 03:17:45;;;;;;;7.95;3.03;;;;;;;;;;5012868;28;20036;-44
2022/09/10 03:20:10;;;;;;;5.38;3.00;;;;;;;;;;5012812;28;20112;-44
2022/09/10 03:22:37;;;;;;;4.50;3.30;;;;;;;;;;5012719;28;20069;-45
2022/09/10 03:25:03;;;;;;;4.78;3.00;;;;;;;;;;5011310;28;20034;-44
2022/09/10 03:27:29;;;;;;;3.92;2.80;;;;;;;;;;5012712;28;20037;-44
2022/09/10 03:29:54;;;;;;;3.50;2.65;;;;;;;;;;5010851;28;20037;-43
2022/09/10 03:32:20;;;;;;;5.82;2.90;;;;;;;;;;5011427;28;20057;-44
2022/09/10 03:34:46;;;;;;;4.15;2.72;;;;;;;;;;5012361;28;20034;-43
2022/09/10 03:37:11;;;;;;;3.17;2.63;;;;;;;;;;5012398;28;20037;-43
2022/09/10 03:39:37;;;;;;;5.38;2.63;;;;;;;;;;5012282;28;20462;-43
2022/09/10 03:42:04;;;;;;;4.93;2.47;;;;;;;;;;5012576;28;20025;-43
2022/09/10 03:44:32;;;;;;;6.68;2.40;;;;;;;;;;5012605;28;20393;-44
2022/09/10 03:47:00;;;;;;;8.30;2.75;;;;;;;;;;5012535;28;20041;-44
2022/09/10 03:49:26;;;;;;;3.45;2.50;;;;;;;;;;5012128;28;20482;-43
2022/09/10 03:51:52;;;;;;;3.70;2.45;;;;;;;;;;5012337;28;20160;-44
2022/09/10 03:54:18;;;;;;;2.08;1.85;;;;;;;;;;5012126;28;20076;-43
2022/09/10 03:56:44;;;;;;;2.80;2.05;;;;;;;;;;5012298;28;20033;-44
2022/09/10 03:59:12;;;;;;;5.13;2.35;;;;;;;;;;5012440;28;20021;-40
2022/09/10 04:01:38;;;;;;;4.75;2.17;;;;;;;;;;5012080;28;20466;-41
2022/09/10 04:04:04;;;;;;;2.22;2.03;;;;;;;;;;5012063;28;20026;-41
2022/09/10 04:06:31;;;;;;;2.42;2.17;;;;;;;;;;5012377;28;20025;-41
2022/09/10 04:08:57;;;;;;;3.25;2.10;;;;;;;;;;5011078;28;20080;-42
2022/09/10 04:11:26;;;;;;;2.85;2.13;;;;;;;;;;5012009;28;20030;-43
2022/09/10 04:13:52;;;;;;;4.05;2.50;;;;;;;;;;5012083;28;20032;-43
2022/09/10 04:16:17;;;;;;;5.68;2.72;;;;;;;;;;5012122;28;20030;-46
2022/09/10 04:18:43;;;;;;;4.82;2.40;;;;;;;;;;5011996;28;20113;-44
2022/09/10 04:21:08;;;;;;;4.82;2.50;;;;;;;;;;5011941;28;20054;-42
2022/09/10 04:23:34;;;;;;;3.08;2.78;;;;;;;;;;5012233;28;20022;-41
2022/09/10 04:25:59;;;;;;;5.72;3.13;;;;;;;;;;5015731;28;20105;-45
2022/09/10 04:28:25;;;;;;;5.68;3.45;;;;;;;;;;5015311;28;20022;-42
2022/09/10 04:30:51;;;;;;;8.15;3.30;;;;;;;;;;5015231;28;20065;-41
2022/09/10 04:33:16;;;;;;;7.20;3.88;;;;;;;;;;5015502;28;20025;-45
2022/09/10 04:35:42;;;;;;;4.90;3.50;;;;;;;;;;5015260;28;20091;-45
2022/09/10 04:38:08;;;;;;;5.93;4.15;;;;;;;;;;5015432;28;20026;-45
2022/09/10 04:40:34;;;;;;;5.60;3.47;;;;;;;;;;5015279;28;20021;-48
2022/09/10 04:43:00;;;;;;;7.43;3.00;;;;;;;;;;5015429;28;20144;-45
2022/09/10 04:45:25;;;;;;;5.65;3.10;;;;;;;;;;5015064;28;20464;-44
2022/09/10 04:47:53;;;;;;;4.70;2.88;;;;;;;;;;5014938;28;20026;-44
2022/09/10 04:50:19;;;;;;;4.00;2.45;;;;;;;;;;5014881;28;20034;-42
2022/09/10 04:52:44;;;;;;;5.63;2.92;;;;;;;;;;5015010;28;20117;-44
2022/09/10 04:55:10;;;;;;;6.10;3.25;;;;;;;;;;5015130;28;20438;-45
2022/09/10 04:57:36;;;;;;;5.68;4.10;;;;;;;;;;5014885;28;20536;-44
2022/09/10 05:00:06;;;;;;;2.88;2.55;;;;;;;;;;5014730;28;20022;-44
2022/09/10 05:02:33;;;;;;;4.85;3.17;;;;;;;;;;5014828;28;20030;-45
2022/09/10 05:04:58;;;;;;;4.72;2.80;;;;;;;;;;5014786;28;20030;-44
2022/09/10 05:07:24;;;;;;;5.50;3.17;;;;;;;;;;5014697;28;20032;-44
2022/09/10 05:09:50;;;;;;;6.95;3.35;;;;;;;;;;5014534;28;20113;-44
2022/09/10 05:12:18;;;;;;;5.30;2.70;;;;;;;;;;5014536;28;20030;-45
2022/09/10 05:14:43;;;;;;;4.05;3.30;;;;;;;;;;5014745;28;20030;-45
2022/09/10 05:17:09;;;;;;;3.83;2.90;;;;;;;;;;5014734;28;20184;-43
2022/09/10 05:19:34;;;;;;;3.35;3.05;;;;;;;;;;5014398;28;20048;-44
2022/09/10 05:22:00;;;;;;;5.93;3.15;;;;;;;;;;5014349;28;20478;-46
2022/09/10 05:24:26;;;;;;;4.60;2.80;;;;;;;;;;5014283;28;20076;-47
2022/09/10 05:26:51;;;;;;;3.97;2.70;;;;;;;;;;5014550;28;20513;-48
2022/09/10 05:29:17;;;;;;;3.75;2.80;;;;;;;;;;5014214;28;20034;-45
2022/09/10 05:31:43;;;;;;;3.75;2.47;;;;;;;;;;5014098;28;20104;-44
2022/09/10 05:34:09;;;;;;;2.40;2.20;;;;;;;;;;5014426;28;20401;-45
2022/09/10 05:36:34;;;;;;;5.63;2.80;;;;;;;;;;5013798;28;20022;-47
2022/09/10 05:39:02;;;;;;;5.85;2.95;;;;;;;;;;5014293;28;20030;-46
2022/09/10 05:41:27;;;;;;;6.47;3.20;;;;;;;;;;5014035;28;20109;-48
2022/09/10 05:43:54;;;;;;;6.47;3.08;;;;;;;;;;5014006;28;20101;-45
2022/09/10 05:46:19;;;;;;;5.35;3.00;;;;;;;;;;5013840;28;20054;-46
2022/09/10 05:48:45;;;;;;;5.43;3.53;;;;;;;;;;5013726;28;20088;-45
2022/09/10 05:51:11;;;;;;;4.75;3.45;;;;;;;;;;5013732;28;20120;-45
2022/09/10 05:53:37;;;;;;;3.03;2.70;;;;;;;;;;5014027;28;20105;-45
2022/09/10 05:56:04;;;;;;;3.70;3.20;;;;;;;;;;5014109;28;20053;-45
2022/09/10 05:58:30;;;;;;;5.53;4.45;;;;;;;;;;5013605;28;20030;-44
2022/09/10 06:00:57;;;;;;;3.80;3.00;;;;;;;;;;5013717;28;20121;-45
2022/09/10 06:03:23;;;;;;;5.47;2.53;;;;;;;;;;5013926;28;20032;-44
2022/09/10 06:05:52;;;;;;;3.75;3.15;;;;;;;;;;5013541;28;20029;-40
2022/09/10 06:08:22;;;;;;;5.35;2.55;;;;;;;;;;5013595;28;20034;-45
2022/09/10 06:10:55;;;;;;;5.68;2.30;;;;;;;;;;5013501;28;20050;-45
2022/09/10 06:13:21;;;;;;;4.63;2.58;;;;;;;;;;5012224;28;20036;-45
2022/09/10 06:15:46;;;;;;;4.80;2.85;;;;;;;;;;5013455;28;20113;-41
2022/09/10 06:18:12;;;;;;;4.93;2.20;;;;;;;;;;5013249;28;20030;-44
2022/09/10 06:20:38;;;;;;;5.82;2.33;;;;;;;;;;5013249;28;20030;-43
2022/09/10 06:23:04;;;;;;;3.47;1.80;;;;;;;;;;5012056;28;20022;-43
2022/09/10 06:25:30;;;;;;;7.18;1.67;;;;;;;;;;5013234;28;20033;-44
2022/09/10 06:27:55;;;;;;;10.98;5.95;;;;;;;;;;5013187;28;20030;-46
2022/09/10 06:30:21;;;;;;;2.80;2.28;;;;;;;;;;5013087;28;20046;-40
2022/09/10 06:32:47;;;;;;;3.78;2.08;;;;;;;;;;5013356;28;20048;-44
2022/09/10 06:35:13;;;;;;;1.75;1.65;;;;;;;;;;5013046;28;20171;-48
2022/09/10 06:37:39;;;;;;;2.13;1.48;;;;;;;;;;5013262;28;20058;-47
2022/09/10 06:40:05;;;;;;;2.20;1.80;;;;;;;;;;5012932;28;20029;-44
2022/09/10 06:42:31;;;;;;;2.33;1.70;;;;;;;;;;5012983;28;20478;-45
2022/09/10 06:44:59;;;;;;;1.63;1.50;;;;;;;;;;5012876;28;20112;-46
2022/09/10 06:47:24;;;;;;;1.80;1.70;;;;;;;;;;5012199;28;20478;-45
2022/09/10 06:49:51;;;;;;;3.42;1.83;;;;;;;;;;5012815;28;20040;-42
2022/09/10 06:52:16;;;;;;;1.55;1.45;;;;;;;;;;5013087;28;20363;-45
2022/09/10 06:54:43;;;;;;;1.83;1.60;;;;;;;;;;5012722;28;20033;-45
2022/09/10 06:57:09;;;;;;;3.55;1.60;;;;;;;;;;5012713;28;20022;-45
2022/09/10 06:59:34;;;;;;;3.88;1.70;;;;;;;;;;5012884;28;20096;-45
2022/09/10 07:02:01;;;;;;;2.25;1.65;;;;;;;;;;5012541;28;20038;-45
2022/09/10 07:04:27;;;;;;;2.28;1.70;;;;;;;;;;5012678;28;20033;-45
2022/09/10 07:06:53;;;;;;;1.95;1.50;;;;;;;;;;5012893;28;20080;-45
2022/09/10 07:09:18;;;;;;;2.92;1.70;;;;;;;;;;5012655;28;20030;-44
2022/09/10 07:11:44;;;;;;;4.70;1.45;;;;;;;;;;5012651;28;20099;-44
2022/09/10 07:14:11;;;;;;;3.65;1.40;;;;;;;;;;5012998;28;20030;-44
2022/09/10 07:16:40;;;;;;;2.45;1.70;;;;;;;;;;5010785;28;20405;-48
2022/09/10 07:19:06;;;;;;;2.58;1.60;;;;;;;;;;5012584;28;20058;-45
2022/09/10 07:21:36;;;;;;;4.43;1.70;;;;;;;;;;5012830;28;20347;-47
2022/09/10 07:24:04;;;;;;;4.78;2.10;;;;;;;;;;5012918;28;20501;-46
2022/09/10 07:26:30;;;;;;;3.38;2.20;;;;;;;;;;5012785;28;20354;-45
2022/09/10 07:28:57;;;;;;;7.95;5.38;;;;;;;;;;5012658;28;20034;-49
2022/09/10 07:31:29;;;;;;;8.68;5.75;;;;;;;;;;5012108;28;20082;-46
2022/09/10 07:33:59;;;;;;;4.82;3.40;;;;;;;;;;5012760;28;20030;-45
2022/09/10 07:36:25;;;;;;;2.53;2.30;;;;;;;;;;5012535;28;20524;-46
2022/09/10 07:38:53;;;;;;;2.92;1.88;;;;;;;;;;5012642;28;20029;-44
2022/09/10 07:41:19;;;;;;;3.67;1.90;;;;;;;;;;5012381;28;20050;-46
2022/09/10 07:43:44;;;;;;;1.50;1.40;;;;;;;;;;5012430;28;20065;-43
2022/09/10 07:46:12;;;;;;;1.63;1.50;;;;;;;;;;5012652;28;20034;-45
2022/09/10 07:48:40;;;;;;;5.03;1.70;;;;;;;;;;5012102;28;20061;-44
2022/09/10 07:51:07;;;;;;;3.33;1.77;;;;;;;;;;5012572;28;20026;-48
2022/09/10 07:53:34;;;;;;;3.75;1.75;;;;;;;;;;5012300;28;20100;-42
2022/09/10 07:56:02;;;;;;;4.45;1.95;;;;;;;;;;5012066;28;20061;-43
2022/09/10 07:58:30;;;;;;;3.00;1.70;;;;;;;;;;5013530;28;20091;-44
2022/09/10 08:00:55;;;;;;;4.07;1.65;;;;;;;;;;5015921;28;20030;-45
2022/09/10 08:03:21;;;;;;;3.50;1.90;;;;;;;;;;5015916;28;20129;-44
2022/09/10 08:05:47;;;;;;;3.70;1.60;;;;;;;;;;5015823;28;20061;-44
2022/09/10 08:08:13;;;;;;;29.00;3.33;;;;;;;;;;5015599;28;20018;-43
2022/09/10 08:10:39;;;;;;;9.18;1.88;;;;;;;;;;5015769;28;20374;-43
2022/09/10 08:13:05;;;;;;;25.20;4.93;;;;;;;;;;5015700;28;20022;-45
2022/09/10 08:15:30;;;;;;;6.55;1.70;;;;;;;;;;5015686;28;20029;-45
2022/09/10 08:17:58;;;;;;;4.68;1.40;;;;;;;;;;5015887;28;20025;-47
2022/09/10 08:20:25;;;;;;;3.45;1.40;;;;;;;;;;5015864;28;20026;-48
2022/09/10 08:22:51;;;;;;;12.23;2.83;;;;;;;;;;5015540;28;20029;-44
2022/09/10 08:25:19;;;;;;;2.60;1.75;;;;;;;;;;5015790;28;20400;-43
2022/09/10 08:27:44;;;;;;;1.45;1.30;;;;;;;;;;5015695;28;20030;-42
2022/09/10 08:30:11;;;;;;;2.35;1.00;;;;;;;;;;5015160;28;20389;-45
2022/09/10 08:32:36;;;;;;;2.90;1.10;;;;;;;;;;5015634;28;20037;-49
2022/09/10 08:35:03;;;;;;;1.17;0.98;;;;;;;;;;5015650;28;20076;-47
2022/09/10 08:37:31;;;;;;;3.65;1.00;;;;;;;;;;5015256;28;20034;-46
2022/09/10 08:39:57;;;;;;;1.00;1.00;;;;;;;;;;5015297;28;20112;-50
2022/09/10 08:42:48;;;;;;;1.50;1.17;;;;;;;;;;5015234;28;20054;-43
2022/09/10 08:45:26;;;;;;;2.08;1.50;;;;;;;;;;5015247;28;20081;-45
2022/09/10 08:48:15;;;;;;;2.45;1.00;;;;;;;;;;5015411;28;20052;-50
2022/09/10 08:50:45;;;;;;;1.40;1.10;;;;;;;;;;5015342;28;20103;-50
2022/09/10 08:53:35;;;;;;;1.30;1.20;;;;;;;;;;5015093;28;20429;-50
2022/09/10 08:56:06;;;;;;;2.13;1.60;;;;;;;;;;5015021;28;20026;-50
2022/09/10 08:58:41;;;;;;;1.10;1.00;;;;;;;;;;5014984;28;20099;-47
2022/09/10 09:01:18;;;;;;;2.60;1.08;;;;;;;;;;5014915;28;20101;-45
2022/09/10 09:03:47;;;;;;;3.63;1.83;;;;;;;;;;5014827;28;20030;-45
2022/09/10 09:06:43;;;;;;;12.07;2.33;;;;;;;;;;5014875;28;20026;-49
2022/09/10 09:09:10;;;;;;;3.42;0.80;;;;;;;;;;4989437;28;20066;-44
2022/09/10 09:11:50;;;;;;;0.98;0.90;;;;;;;;;;5014412;28;20034;-49
2022/09/10 09:14:52;;;;;;;0.80;0.80;;;;;;;;;;5014687;28;20036;-43
2022/09/10 09:17:27;;;;;;;2.42;0.90;;;;;;;;;;5000473;28;20041;-44
2022/09/10 09:20:04;;;;;;;2.17;1.00;;;;;;;;;;5014780;28;20026;-44
2022/09/10 09:22:56;;;;;;;5.05;1.00;;;;;;;;;;5014408;28;20030;-44
2022/09/10 09:25:21;;;;;;;6.75;1.52;;;;;;;;;;5014463;28;20393;-44
2022/09/10 09:27:52;;;;;;;3.67;1.42;;;;;;;;;;5014539;28;20026;-42
2022/09/10 09:30:25;;;;;;;3.92;1.05;;;;;;;;;;5013978;28;20045;-45
2022/09/10 09:33:02;;;;;;;1.30;1.20;;;;;;;;;;5014546;28;20030;-44
2022/09/10 09:35:32;;;;;;;3.75;1.20;;;;;;;;;;5013697;28;20033;-43
2022/09/10 09:38:10;;;;;;;2.53;1.10;;;;;;;;;;5014008;28;20034;-43
2022/09/10 09:40:51;;;;;;;2.78;1.15;;;;;;;;;;5014119;28;20053;-42
2022/09/10 09:43:51;;;;;;;4.03;1.50;;;;;;;;;;5014072;28;20077;-43
2022/09/10 09:46:19;;;;;;;6.45;1.38;;;;;;;;;;5014088;28;20025;-44
2022/09/10 09:48:45;;;;;;;2.58;1.30;;;;;;;;;;5012850;28;20117;-48
2022/09/10 09:51:20;;;;;;;1.10;1.00;;;;;;;;;;5013939;28;20105;-42
2022/09/10 09:53:48;;;;;;;2.92;1.30;;;;;;;;;;5013847;28;20021;-42
2022/09/10 09:56:41;;;;;;;3.28;1.65;;;;;;;;;;5013795;28;20029;-41
2022/09/10 09:59:20;;;;;;;9.43;1.80;;;;;;;;;;5013989;28;20040;-42
2022/09/10 10:01:46;;;;;;;4.15;2.22;;;;;;;;;;5013648;28;20037;-43
2022/09/10 10:04:29;;;;;;;1.42;1.20;;;;;;;;;;5013584;28;20034;-42
2022/09/10 10:06:57;;;;;;;1.80;1.30;;;;;;;;;;5013459;28;20095;-44
2022/09/10 10:09:32;;;;;;;1.75;1.02;;;;;;;;;;5013601;28;20419;-44
2022/09/10 10:12:04;;;;;;;1.40;1.30;;;;;;;;;;5013701;28;20034;-43
2022/09/10 10:14:30;;;;;;;1.92;1.10;;;;;;;;;;5013226;28;20026;-43
2022/09/10 10:16:57;;;;;;;0.95;0.90;;;;;;;;;;5013683;28;20362;-42
2022/09/10 10:19:28;;;;;;;2.92;1.08;;;;;;;;;;5013364;28;20501;-42
2022/09/10 10:21:54;;;;;;;1.88;1.23;;;;;;;;;;5012430;28;20030;-43
2022/09/10 10:24:32;;;;;;;1.05;1.00;;;;;;;;;;5013252;28;20109;-46
2022/09/10 10:26:58;;;;;;;0.90;0.88;;;;;;;;;;5013586;28;20037;-43
2022/09/10 10:29:25;;;;;;;2.88;1.05;;;;;;;;;;5013449;28;20111;-43
2022/09/10 10:31:52;;;;;;;1.83;1.02;;;;;;;;;;5013123;28;20049;-44
2022/09/10 10:34:44;;;;;;;7.38;1.20;;;;;;;;;;5013394;28;20037;-45
2022/09/10 10:37:18;;;;;;;0.98;0.98;;;;;;;;;;5012965;28;20033;-42
2022/09/10 10:40:10;;;;;;;1.52;0.93;;;;;;;;;;5013003;28;20481;-42
2022/09/10 10:42:50;;;;;;;1.98;0.98;;;;;;;;;;5010742;28;20049;-42
2022/09/10 10:45:40;;;;;;;2.63;0.75;;;;;;;;;;5012990;28;20030;-42
2022/09/10 10:48:11;;;;;;;1.35;0.60;;;;;;;;;;5012934;28;20504;-42
2022/09/10 10:50:54;;;;;;;3.88;0.90;;;;;;;;;;5012944;28;20034;-40
2022/09/10 10:53:48;;;;;;;2.60;0.90;;;;;;;;;;5005236;28;20034;-41
2022/09/10 10:56:24;;;;;;;1.45;0.70;;;;;;;;;;5011294;28;20026;-38
2022/09/10 10:58:56;;;;;;;1.33;0.60;;;;;;;;;;5011608;28;20065;-41
2022/09/10 11:01:24;;;;;;;6.90;0.65;;;;;;;;;;5012733;28;20030;-39
2022/09/10 11:04:27;;;;;;;0.50;0.50;;;;;;;;;;5012694;28;20033;-43
2022/09/10 11:07:12;;;;;;;1.95;0.60;;;;;;;;;;5012296;28;20030;-40
2022/09/10 11:09:51;;;;;;;21.45;18.15;;;;;;;;;;5012602;28;20096;-39
2022/09/10 11:12:42;;;;;;;1.85;0.70;;;;;;;;;;5012932;28;20034;-39
2022/09/10 11:15:39;;;;;;;2.25;0.73;;;;;;;;;;5012942;28;20022;-43
2022/09/10 11:18:18;;;;;;;0.70;0.60;;;;;;;;;;5012934;28;20065;-42
2022/09/10 11:21:07;;;;;;;2.25;0.70;;;;;;;;;;5012422;28;20515;-44
2022/09/10 11:23:38;;;;;;;1.55;0.60;;;;;;;;;;5011891;28;20041;-41
2022/09/10 11:26:14;;;;;;;1.40;0.73;;;;;;;;;;5012545;28;20026;-39
2022/09/10 11:28:46;;;;;;;0.90;0.73;;;;;;;;;;5012755;28;20026;-40
2022/09/10 11:31:34;;;;;;;0.98;0.82;;;;;;;;;;5012452;28;20628;-40
2022/09/10 11:34:11;;;;;;;0.70;0.70;;;;;;;;;;5014741;28;20045;-42
2022/09/10 11:36:52;;;;;;;1.17;0.98;;;;;;;;;;5016456;28;20062;-42
2022/09/10 11:39:37;;;;;;;5.82;0.95;;;;;;;;;;5016371;28;20037;-42
2022/09/10 11:42:12;;;;;;;1.20;0.80;;;;;;;;;;5015784;28;20026;-41
2022/09/10 11:44:56;;;;;;;1.25;0.77;;;;;;;;;;5014745;28;20410;-41
2022/09/10 11:47:29;;;;;;;0.50;0.50;;;;;;;;;;5014525;28;20068;-41
2022/09/10 11:50:02;;;;;;;0.63;0.60;;;;;;;;;;5014099;28;20543;-42
2022/09/10 11:52:33;;;;;;;0.90;0.75;;;;;;;;;;5014693;28;20029;-41
2022/09/10 11:55:02;;;;;;;0.82;0.50;;;;;;;;;;5014561;28;20482;-42
2022/09/10 11:57:47;;;;;;;1.30;0.60;;;;;;;;;;5014303;28;20026;-41
2022/09/10 12:00:17;;;;;;;0.65;0.65;;;;;;;;;;5015759;28;20037;-41
2022/09/10 12:02:56;;;;;;;2.75;0.85;;;;;;;;;;5015749;28;20026;-41
2022/09/10 12:05:43;;;;;;;3.92;0.70;;;;;;;;;;5015892;28;20074;-42
2022/09/10 12:08:24;;;;;;;0.60;0.50;;;;;;;;;;5015894;28;20026;-41
2022/09/10 12:11:12;;;;;;;0.95;0.50;;;;;;;;;;5016108;28;20026;-41
2022/09/10 12:13:38;;;;;;;0.65;0.65;;;;;;;;;;5015756;28;20034;-41
2022/09/10 12:16:31;;;;;;;0.57;0.55;;;;;;;;;;5015733;28;20041;-42
2022/09/10 12:18:58;;;;;;;1.70;0.60;;;;;;;;;;5008350;28;20044;-41
2022/09/10 12:21:31;;;;;;;1.75;0.65;;;;;;;;;;5015645;28;20048;-40
2022/09/10 12:23:58;;;;;;;4.85;0.55;;;;;;;;;;5015649;28;20038;-41
2022/09/10 12:26:24;;;;;;;2.28;0.47;;;;;;;;;;5014685;28;20497;-42
2022/09/10 12:28:49;;;;;;;0.50;0.50;;;;;;;;;;5015677;28;20069;-41
2022/09/10 12:31:18;;;;;;;1.38;0.60;;;;;;;;;;5015219;28;20048;-42
2022/09/10 12:33:44;;;;;;;1.85;0.60;;;;;;;;;;5015839;28;20025;-41
2022/09/10 12:36:12;;;;;;;0.77;0.50;;;;;;;;;;5015627;28;20114;-42
2022/09/10 12:38:43;;;;;;;0.95;0.70;;;;;;;;;;5015601;28;20030;-41
2022/09/10 12:41:11;;;;;;;0.75;0.57;;;;;;;;;;5015231;28;20037;-42
2022/09/10 12:43:39;;;;;;;1.67;0.65;;;;;;;;;;5015555;28;20030;-42
2022/09/10 12:46:07;;;;;;;2.17;1.00;;;;;;;;;;5014445;28;20026;-42
2022/09/10 12:48:35;;;;;;;1.33;0.50;;;;;;;;;;5015042;28;20535;-42
2022/09/10 12:51:18;;;;;;;0.90;0.60;;;;;;;;;;5015122;28;20038;-43
2022/09/10 12:53:46;;;;;;;6.38;0.80;;;;;;;;;;5015385;28;20064;-42
2022/09/10 12:56:46;;;;;;;2.65;0.70;;;;;;;;;;5013776;28;20026;-41
2022/09/10 12:59:45;;;;;;;1.85;0.60;;;;;;;;;;5015011;28;20544;-41
2022/09/10 13:02:36;;;;;;;1.90;1.15;;;;;;;;;;5014999;28;20061;-44
2022/09/10 13:05:16;;;;;;;1.17;0.60;;;;;;;;;;5013711;28;20121;-41
2022/09/10 13:07:44;;;;;;;7.22;0.98;;;;;;;;;;5014776;28;20072;-41
2022/09/10 13:10:16;;;;;;;0.50;0.50;;;;;;;;;;5014689;28;20069;-41
2022/09/10 13:12:43;;;;;;;1.35;0.80;;;;;;;;;;5014675;28;20025;-41
2022/09/10 13:15:19;;;;;;;2.38;0.55;;;;;;;;;;5014900;28;20047;-41
2022/09/10 13:17:50;;;;;;;4.18;0.80;;;;;;;;;;5014564;28;20116;-41
2022/09/10 13:20:21;;;;;;;0.73;0.73;;;;;;;;;;5014503;28;20030;-42
2022/09/10 13:23:02;;;;;;;2.20;0.63;;;;;;;;;;5014428;28;20030;-42
2022/09/10 13:25:50;;;;;;;0.40;0.40;;;;;;;;;;5014802;28;20029;-42
2022/09/10 13:28:28;;;;;;;0.70;0.65;;;;;;;;;;5014371;28;20025;-42
2022/09/10 13:31:07;;;;;;;1.02;0.70;;;;;;;;;;5014425;28;20499;-42
2022/09/10 13:34:13;;;;;;;0.80;0.80;;;;;;;;;;5014357;28;20160;-42
2022/09/10 13:36:54;;;;;;;3.70;0.80;;;;;;;;;;5010091;28;20045;-42
2022/09/10 13:39:35;;;;;;;1.20;0.60;;;;;;;;;;5014493;28;20160;-42
2022/09/10 13:42:03;;;;;;;0.52;0.52;;;;;;;;;;5014174;28;20034;-43
2022/09/10 13:44:50;;;;;;;1.15;0.80;;;;;;;;;;5014073;28;20030;-42
2022/09/10 13:47:27;;;;;;;0.90;0.60;;;;;;;;;;5014428;28;20030;-42
2022/09/10 13:49:59;;;;;;;3.22;0.60;;;;;;;;;;5013991;28;20442;-43
2022/09/10 13:52:33;;;;;;;1.40;0.88;;;;;;;;;;5014296;28;20381;-43
2022/09/10 13:55:00;;;;;;;0.73;0.60;;;;;;;;;;5013882;28;20029;-41
2022/09/10 13:57:39;;;;;;;8.88;0.77;;;;;;;;;;5013727;28;20083;-41
2022/09/10 14:00:22;;;;;;;1.05;0.55;;;;;;;;;;5013763;28;20501;-41
2022/09/10 14:02:55;;;;;;;1.77;0.70;;;;;;;;;;5013840;28;20034;-41
2022/09/10 14:05:30;;;;;;;1.63;0.63;;;;;;;;;;5013734;28;20030;-41
2022/09/10 14:08:00;;;;;;;1.48;0.73;;;;;;;;;;5013725;28;20029;-42
2022/09/10 14:10:26;;;;;;;1.95;0.75;;;;;;;;;;5012609;28;20112;-41
2022/09/10 14:12:53;;;;;;;1.63;0.70;;;;;;;;;;5013685;28;20386;-41
2022/09/10 14:15:23;;;;;;;1.50;0.63;;;;;;;;;;5013834;28;20092;-41
2022/09/10 14:17:54;;;;;;;0.93;0.77;;;;;;;;;;5013792;28;20076;-41
2022/09/10 14:20:24;;;;;;;0.75;0.70;;;;;;;;;;5013452;28;20033;-41
2022/09/10 14:23:02;;;;;;;1.75;0.85;;;;;;;;;;5013418;28;20077;-41
2022/09/10 14:25:33;;;;;;;1.02;0.60;;;;;;;;;;5013699;28;20030;-41
2022/09/10 14:28:20;;;;;;;1.70;0.68;;;;;;;;;;5013664;28;20042;-41
2022/09/10 14:30:47;;;;;;;1.27;0.77;;;;;;;;;;5013572;28;20045;-41
2022/09/10 14:33:34;;;;;;;1.63;0.63;;;;;;;;;;5013542;28;20038;-41
2022/09/10 14:36:20;;;;;;;0.85;0.70;;;;;;;;;;5013321;28;20504;-41
2022/09/10 14:39:12;;;;;;;1.50;0.80;;;;;;;;;;5013518;28;20092;-41
2022/09/10 14:41:38;;;;;;;3.50;0.77;;;;;;;;;;5013447;28;20096;-41
2022/09/10 14:44:28;;;;;;;3.78;0.80;;;;;;;;;;5013051;28;20469;-42
2022/09/10 14:46:59;;;;;;;0.75;0.73;;;;;;;;;;5013018;28;20108;-41
2022/09/10 14:49:31;;;;;;;2.05;0.60;;;;;;;;;;5013258;28;20034;-41
2022/09/10 14:51:58;;;;;;;2.20;0.85;;;;;;;;;;5012990;28;20030;-41
2022/09/10 14:54:28;;;;;;;0.95;0.73;;;;;;;;;;5012963;28;20018;-41
2022/09/10 14:56:56;;;;;;;1.85;0.73;;;;;;;;;;5012890;28;20026;-41
2022/09/10 14:59:29;;;;;;;1.73;0.80;;;;;;;;;;5013176;28;20377;-41
2022/09/10 15:01:56;;;;;;;3.78;0.73;;;;;;;;;;5013117;28;20397;-42
2022/09/10 15:04:27;;;;;;;2.72;0.80;;;;;;;;;;5012798;28;20030;-42
2022/09/10 15:06:58;;;;;;;;;;;;;;;;;;5013414;28;20351;-41
2022/09/10 15:09:27;;;;;;;2.10;0.70;;;;;;;;;;5012423;28;19921;-41